Friday, April 20, 2018, 10:13 AM GMT
Back to Local

CWNH, Riviere Du Loup, Que.

Location: , , Canada Lat: 47.8
Local Time: 10:13 AM GMT (10:13 GMT) Lon: -69.55
Time Zone: GMT Elev: 485 ft

Show me the last for .
Show Coded

Time T Td Feel RH Dir Speed Gust Alt SLP Vis Weather Sky Remarks
2018-04-20 09:00 32 31 25 98 10° 7 - - 29.85 0 None
2018-04-20 08:00 32 31 25 98 360° 7 - - 29.83 0 1-hr Precip Total: 0.01"
2018-04-20 07:00 32 33 25 105 10° 7 - - 29.83 0 None
2018-04-20 06:00 32 31 25 97 10° 7 - - 29.81 0 1-hr Precip Total: 0.01"
2018-04-20 05:00 31 31 24 97 10° 8 - - 29.80 0 None
2018-04-20 04:00 31 31 22 97 10° 10 - - 29.79 0 None
2018-04-20 03:00 31 31 24 97 10° 8 - - 29.80 0 1-hr Precip Total: 0.01"
2018-04-20 02:00 33 31 26 90 10° 8 - - 29.80 0 1-hr Precip Total: 0.01"
2018-04-20 01:00 33 30 25 90 10° 10 - - 29.80 0 None
2018-04-20 00:00 31 31 25 97 10° 7 - - 29.78 0 None
2018-04-19 23:00 32 31 26 95 20° 7 - - 29.77 0 None
2018-04-19 22:00 34 32 27 91 10° 9 - - 29.75 0 None
2018-04-19 21:00 36 31 29 79 10° 9 - - 29.73 0 None
2018-04-19 20:00 40 28 36 62 250° 5 - - 29.70 0 None
2018-04-19 19:00 40 29 36 64 260° 6 - - 29.68 0 None
2018-04-19 18:00 40 29 36 64 270° 6 - - 29.67 0 None
2018-04-19 17:00 42 29 - 61 180° 2 - - 29.67 0 None
2018-04-19 16:00 39 30 35 68 250° 6 - - 29.66 0 None
2018-04-19 15:00 39 32 34 74 240° 7 - - 29.65 0 None
2018-04-19 14:00 38 32 34 77 220° 6 - - 29.64 0 None
2018-04-19 13:00 37 31 31 80 220° 7 - - 29.62 0 None
2018-04-19 12:00 35 33 29 91 230° 7 - - 29.61 0 None
2018-04-19 11:00 33 33 29 101 210° 5 - - 29.59 0 None

Support USWX by starting your Amazon purchase here.